sensor_id;sensor_type;location;lat;lon;timestamp;P1;durP1;ratioP1;P2;durP2;ratioP2
20322;SDS011;10319;52.206;20.996;2023-04-01T00:00:16;18.17;;;6.77;;
20322;SDS011;10319;52.206;20.996;2023-04-01T00:02:41;17.77;;;6.60;;
20322;SDS011;10319;52.206;20.996;2023-04-01T00:05:07;21.60;;;6.83;;
20322;SDS011;10319;52.206;20.996;2023-04-01T00:07:32;19.10;;;6.87;;
20322;SDS011;10319;52.206;20.996;2023-04-01T00:09:58;16.90;;;5.80;;
20322;SDS011;10319;52.206;20.996;2023-04-01T00:12:23;18.93;;;6.63;;
20322;SDS011;10319;52.206;20.996;2023-04-01T00:14:50;16.97;;;6.77;;
20322;SDS011;10319;52.206;20.996;2023-04-01T00:17:15;18.80;;;6.70;;
20322;SDS011;10319;52.206;20.996;2023-04-01T00:19:40;20.67;;;7.03;;
20322;SDS011;10319;52.206;20.996;2023-04-01T00:22:06;20.67;;;6.87;;
20322;SDS011;10319;52.206;20.996;2023-04-01T00:24:32;20.40;;;7.40;;
20322;SDS011;10319;52.206;20.996;2023-04-01T00:26:57;18.40;;;7.40;;
20322;SDS011;10319;52.206;20.996;2023-04-01T00:29:22;16.60;;;6.53;;
20322;SDS011;10319;52.206;20.996;2023-04-01T00:31:49;16.47;;;6.30;;
20322;SDS011;10319;52.206;20.996;2023-04-01T00:34:14;19.43;;;7.70;;
20322;SDS011;10319;52.206;20.996;2023-04-01T00:36:40;17.23;;;6.73;;
20322;SDS011;10319;52.206;20.996;2023-04-01T00:39:05;17.23;;;7.43;;
20322;SDS011;10319;52.206;20.996;2023-04-01T00:41:30;18.37;;;6.97;;
20322;SDS011;10319;52.206;20.996;2023-04-01T00:46:54;18.60;;;7.40;;
20322;SDS011;10319;52.206;20.996;2023-04-01T00:49:20;20.07;;;8.00;;
20322;SDS011;10319;52.206;20.996;2023-04-01T00:51:47;19.47;;;7.80;;
20322;SDS011;10319;52.206;20.996;2023-04-01T00:54:13;19.07;;;7.87;;
20322;SDS011;10319;52.206;20.996;2023-04-01T00:56:48;19.53;;;7.73;;
20322;SDS011;10319;52.206;20.996;2023-04-01T00:59:16;17.13;;;6.20;;
20322;SDS011;10319;52.206;20.996;2023-04-01T01:01:42;14.50;;;5.47;;
20322;SDS011;10319;52.206;20.996;2023-04-01T01:04:20;16.43;;;6.60;;
20322;SDS011;10319;52.206;20.996;2023-04-01T01:09:38;19.27;;;7.73;;
20322;SDS011;10319;52.206;20.996;2023-04-01T01:14:36;17.40;;;6.53;;
20322;SDS011;10319;52.206;20.996;2023-04-01T01:17:11;15.90;;;6.30;;
20322;SDS011;10319;52.206;20.996;2023-04-01T01:19:52;16.50;;;6.10;;
20322;SDS011;10319;52.206;20.996;2023-04-01T01:22:26;16.90;;;7.30;;
20322;SDS011;10319;52.206;20.996;2023-04-01T01:25:43;15.20;;;6.00;;
20322;SDS011;10319;52.206;20.996;2023-04-01T01:27:47;16.67;;;6.57;;
20322;SDS011;10319;52.206;20.996;2023-04-01T01:30:50;16.43;;;6.63;;
20322;SDS011;10319;52.206;20.996;2023-04-01T01:33:13;14.37;;;5.90;;
20322;SDS011;10319;52.206;20.996;2023-04-01T01:35:46;15.43;;;6.50;;
20322;SDS011;10319;52.206;20.996;2023-04-01T01:38:19;17.60;;;7.17;;
20322;SDS011;10319;52.206;20.996;2023-04-01T01:40:47;15.97;;;7.00;;
20322;SDS011;10319;52.206;20.996;2023-04-01T01:43:14;18.03;;;7.40;;
20322;SDS011;10319;52.206;20.996;2023-04-01T01:45:43;15.97;;;6.43;;
20322;SDS011;10319;52.206;20.996;2023-04-01T01:48:09;18.97;;;7.43;;
20322;SDS011;10319;52.206;20.996;2023-04-01T01:50:36;15.80;;;5.97;;
20322;SDS011;10319;52.206;20.996;2023-04-01T01:53:03;17.37;;;7.60;;
20322;SDS011;10319;52.206;20.996;2023-04-01T01:55:32;19.20;;;8.30;;
20322;SDS011;10319;52.206;20.996;2023-04-01T01:57:59;20.50;;;8.27;;
20322;SDS011;10319;52.206;20.996;2023-04-01T02:00:24;16.57;;;6.70;;
20322;SDS011;10319;52.206;20.996;2023-04-01T02:02:50;17.97;;;7.93;;
20322;SDS011;10319;52.206;20.996;2023-04-01T02:05:19;18.63;;;7.77;;
20322;SDS011;10319;52.206;20.996;2023-04-01T02:07:55;17.37;;;6.87;;
20322;SDS011;10319;52.206;20.996;2023-04-01T02:10:23;19.83;;;8.20;;
20322;SDS011;10319;52.206;20.996;2023-04-01T02:12:49;19.17;;;7.33;;
20322;SDS011;10319;52.206;20.996;2023-04-01T02:15:15;15.97;;;6.70;;
20322;SDS011;10319;52.206;20.996;2023-04-01T02:17:45;20.63;;;8.40;;
20322;SDS011;10319;52.206;20.996;2023-04-01T02:20:18;21.83;;;8.77;;
20322;SDS011;10319;52.206;20.996;2023-04-01T02:22:46;21.90;;;9.10;;
20322;SDS011;10319;52.206;20.996;2023-04-01T02:25:13;20.23;;;8.33;;
20322;SDS011;10319;52.206;20.996;2023-04-01T02:27:40;20.50;;;8.60;;
20322;SDS011;10319;52.206;20.996;2023-04-01T02:30:06;22.33;;;8.80;;
20322;SDS011;10319;52.206;20.996;2023-04-01T02:32:32;21.23;;;9.37;;
20322;SDS011;10319;52.206;20.996;2023-04-01T02:34:58;19.00;;;9.10;;
20322;SDS011;10319;52.206;20.996;2023-04-01T02:37:25;22.90;;;9.90;;
20322;SDS011;10319;52.206;20.996;2023-04-01T02:39:50;25.20;;;10.50;;
20322;SDS011;10319;52.206;20.996;2023-04-01T02:42:15;22.63;;;9.23;;
20322;SDS011;10319;52.206;20.996;2023-04-01T02:44:40;23.30;;;10.07;;
20322;SDS011;10319;52.206;20.996;2023-04-01T02:47:06;21.00;;;9.40;;
20322;SDS011;10319;52.206;20.996;2023-04-01T02:49:31;22.83;;;10.40;;
20322;SDS011;10319;52.206;20.996;2023-04-01T02:51:56;23.87;;;10.80;;
20322;SDS011;10319;52.206;20.996;2023-04-01T02:54:21;22.97;;;10.87;;
20322;SDS011;10319;52.206;20.996;2023-04-01T02:56:47;21.87;;;10.77;;
20322;SDS011;10319;52.206;20.996;2023-04-01T02:59:12;23.80;;;11.27;;
20322;SDS011;10319;52.206;20.996;2023-04-01T03:01:37;25.00;;;10.60;;
20322;SDS011;10319;52.206;20.996;2023-04-01T03:04:02;25.73;;;11.47;;
20322;SDS011;10319;52.206;20.996;2023-04-01T03:06:28;24.87;;;12.00;;
20322;SDS011;10319;52.206;20.996;2023-04-01T03:08:53;24.93;;;11.30;;
20322;SDS011;10319;52.206;20.996;2023-04-01T03:11:19;24.67;;;11.40;;
20322;SDS011;10319;52.206;20.996;2023-04-01T03:13:44;26.07;;;12.47;;
20322;SDS011;10319;52.206;20.996;2023-04-01T03:16:10;23.57;;;12.37;;
20322;SDS011;10319;52.206;20.996;2023-04-01T03:18:35;25.50;;;13.07;;
20322;SDS011;10319;52.206;20.996;2023-04-01T03:21:16;26.00;;;13.60;;
20322;SDS011;10319;52.206;20.996;2023-04-01T03:23:42;25.83;;;13.30;;
20322;SDS011;10319;52.206;20.996;2023-04-01T03:26:07;26.13;;;13.23;;
20322;SDS011;10319;52.206;20.996;2023-04-01T03:28:33;23.97;;;12.30;;
20322;SDS011;10319;52.206;20.996;2023-04-01T03:30:58;22.40;;;11.73;;
20322;SDS011;10319;52.206;20.996;2023-04-01T03:33:23;23.90;;;12.27;;
20322;SDS011;10319;52.206;20.996;2023-04-01T03:35:48;25.00;;;11.80;;
20322;SDS011;10319;52.206;20.996;2023-04-01T03:38:16;26.10;;;12.07;;
20322;SDS011;10319;52.206;20.996;2023-04-01T03:40:42;27.07;;;12.27;;
20322;SDS011;10319;52.206;20.996;2023-04-01T03:43:07;25.97;;;12.10;;
20322;SDS011;10319;52.206;20.996;2023-04-01T03:45:34;22.00;;;11.13;;
20322;SDS011;10319;52.206;20.996;2023-04-01T03:48:00;23.20;;;11.37;;
20322;SDS011;10319;52.206;20.996;2023-04-01T03:50:25;22.80;;;10.83;;
20322;SDS011;10319;52.206;20.996;2023-04-01T03:52:51;22.87;;;11.00;;
20322;SDS011;10319;52.206;20.996;2023-04-01T03:55:16;24.00;;;10.77;;
20322;SDS011;10319;52.206;20.996;2023-04-01T03:57:43;21.43;;;11.57;;
20322;SDS011;10319;52.206;20.996;2023-04-01T04:00:08;23.17;;;11.20;;
20322;SDS011;10319;52.206;20.996;2023-04-01T04:02:34;23.37;;;11.10;;
20322;SDS011;10319;52.206;20.996;2023-04-01T04:04:59;22.60;;;11.23;;
20322;SDS011;10319;52.206;20.996;2023-04-01T04:07:24;23.77;;;11.20;;
20322;SDS011;10319;52.206;20.996;2023-04-01T04:09:50;21.67;;;11.37;;
20322;SDS011;10319;52.206;20.996;2023-04-01T04:12:15;22.80;;;10.80;;
20322;SDS011;10319;52.206;20.996;2023-04-01T04:14:40;21.40;;;10.50;;
20322;SDS011;10319;52.206;20.996;2023-04-01T04:17:05;24.00;;;11.60;;
20322;SDS011;10319;52.206;20.996;2023-04-01T04:19:32;22.80;;;9.90;;
20322;SDS011;10319;52.206;20.996;2023-04-01T04:21:58;20.90;;;10.53;;
20322;SDS011;10319;52.206;20.996;2023-04-01T04:24:26;21.67;;;10.40;;
20322;SDS011;10319;52.206;20.996;2023-04-01T04:26:52;23.43;;;10.97;;
20322;SDS011;10319;52.206;20.996;2023-04-01T04:29:17;21.53;;;10.37;;
20322;SDS011;10319;52.206;20.996;2023-04-01T04:31:42;21.17;;;9.87;;
20322;SDS011;10319;52.206;20.996;2023-04-01T04:34:08;21.23;;;10.20;;
20322;SDS011;10319;52.206;20.996;2023-04-01T04:36:33;22.00;;;10.00;;
20322;SDS011;10319;52.206;20.996;2023-04-01T04:38:58;20.40;;;8.73;;
20322;SDS011;10319;52.206;20.996;2023-04-01T04:41:26;20.53;;;9.60;;
20322;SDS011;10319;52.206;20.996;2023-04-01T04:43:53;18.73;;;8.37;;
20322;SDS011;10319;52.206;20.996;2023-04-01T04:46:18;21.87;;;9.13;;
20322;SDS011;10319;52.206;20.996;2023-04-01T04:48:44;20.07;;;8.77;;
20322;SDS011;10319;52.206;20.996;2023-04-01T04:51:12;19.47;;;8.53;;
20322;SDS011;10319;52.206;20.996;2023-04-01T04:53:37;19.27;;;8.53;;
20322;SDS011;10319;52.206;20.996;2023-04-01T04:56:02;18.50;;;8.43;;
20322;SDS011;10319;52.206;20.996;2023-04-01T04:58:28;17.73;;;8.20;;
20322;SDS011;10319;52.206;20.996;2023-04-01T05:00:53;18.87;;;8.57;;
20322;SDS011;10319;52.206;20.996;2023-04-01T05:03:18;16.90;;;7.30;;
20322;SDS011;10319;52.206;20.996;2023-04-01T05:05:53;18.33;;;7.70;;
20322;SDS011;10319;52.206;20.996;2023-04-01T05:08:18;17.73;;;7.87;;
20322;SDS011;10319;52.206;20.996;2023-04-01T05:10:43;17.07;;;7.67;;
20322;SDS011;10319;52.206;20.996;2023-04-01T05:13:09;17.90;;;7.77;;
20322;SDS011;10319;52.206;20.996;2023-04-01T05:15:35;17.87;;;6.93;;
20322;SDS011;10319;52.206;20.996;2023-04-01T05:18:00;17.47;;;7.67;;
20322;SDS011;10319;52.206;20.996;2023-04-01T05:20:25;18.43;;;7.70;;
20322;SDS011;10319;52.206;20.996;2023-04-01T05:22:55;17.53;;;7.80;;
20322;SDS011;10319;52.206;20.996;2023-04-01T05:25:20;17.70;;;7.33;;
20322;SDS011;10319;52.206;20.996;2023-04-01T05:27:45;17.53;;;7.50;;
20322;SDS011;10319;52.206;20.996;2023-04-01T05:30:11;17.27;;;7.27;;
20322;SDS011;10319;52.206;20.996;2023-04-01T05:32:36;16.90;;;7.53;;
20322;SDS011;10319;52.206;20.996;2023-04-01T05:35:01;17.23;;;7.50;;
20322;SDS011;10319;52.206;20.996;2023-04-01T05:37:26;16.80;;;7.47;;
20322;SDS011;10319;52.206;20.996;2023-04-01T05:39:52;16.20;;;6.93;;
20322;SDS011;10319;52.206;20.996;2023-04-01T05:42:17;17.87;;;6.87;;
20322;SDS011;10319;52.206;20.996;2023-04-01T05:44:42;17.17;;;7.10;;
20322;SDS011;10319;52.206;20.996;2023-04-01T05:47:07;16.60;;;7.40;;
20322;SDS011;10319;52.206;20.996;2023-04-01T05:49:33;18.43;;;7.77;;
20322;SDS011;10319;52.206;20.996;2023-04-01T05:51:58;17.20;;;7.30;;
20322;SDS011;10319;52.206;20.996;2023-04-01T05:54:23;16.73;;;6.80;;
20322;SDS011;10319;52.206;20.996;2023-04-01T05:56:49;17.07;;;7.20;;
20322;SDS011;10319;52.206;20.996;2023-04-01T05:59:14;16.90;;;6.87;;
20322;SDS011;10319;52.206;20.996;2023-04-01T06:01:39;16.53;;;7.07;;
20322;SDS011;10319;52.206;20.996;2023-04-01T06:04:05;15.47;;;6.60;;
20322;SDS011;10319;52.206;20.996;2023-04-01T06:06:30;14.67;;;6.00;;
20322;SDS011;10319;52.206;20.996;2023-04-01T06:09:13;15.87;;;6.20;;
20322;SDS011;10319;52.206;20.996;2023-04-01T06:14:41;17.67;;;7.17;;
20322;SDS011;10319;52.206;20.996;2023-04-01T06:25:00;18.27;;;8.40;;
20322;SDS011;10319;52.206;20.996;2023-04-01T06:42:35;20.40;;;9.93;;
20322;SDS011;10319;52.206;20.996;2023-04-01T06:50:30;21.57;;;10.50;;
20322;SDS011;10319;52.206;20.996;2023-04-01T06:53:11;19.73;;;9.10;;
20322;SDS011;10319;52.206;20.996;2023-04-01T06:58:03;21.63;;;10.57;;
20322;SDS011;10319;52.206;20.996;2023-04-01T07:00:40;21.37;;;11.03;;
20322;SDS011;10319;52.206;20.996;2023-04-01T07:05:37;20.97;;;11.47;;
20322;SDS011;10319;52.206;20.996;2023-04-01T07:08:04;21.33;;;10.97;;
20322;SDS011;10319;52.206;20.996;2023-04-01T07:10:45;20.37;;;10.53;;
20322;SDS011;10319;52.206;20.996;2023-04-01T07:13:23;21.27;;;11.43;;
20322;SDS011;10319;52.206;20.996;2023-04-01T07:18:32;21.17;;;11.33;;
20322;SDS011;10319;52.206;20.996;2023-04-01T07:20:59;20.77;;;10.37;;
20322;SDS011;10319;52.206;20.996;2023-04-01T07:23:31;23.67;;;12.47;;
20322;SDS011;10319;52.206;20.996;2023-04-01T07:26:00;25.73;;;13.63;;
20322;SDS011;10319;52.206;20.996;2023-04-01T07:28:30;23.73;;;12.97;;
20322;SDS011;10319;52.206;20.996;2023-04-01T07:41:15;23.93;;;13.83;;
20322;SDS011;10319;52.206;20.996;2023-04-01T07:48:38;23.87;;;13.20;;
20322;SDS011;10319;52.206;20.996;2023-04-01T07:51:10;21.97;;;12.00;;
20322;SDS011;10319;52.206;20.996;2023-04-01T07:56:35;22.53;;;12.53;;
20322;SDS011;10319;52.206;20.996;2023-04-01T07:59:12;20.87;;;11.53;;
20322;SDS011;10319;52.206;20.996;2023-04-01T08:01:42;21.77;;;11.67;;
20322;SDS011;10319;52.206;20.996;2023-04-01T08:22:29;18.97;;;9.33;;
20322;SDS011;10319;52.206;20.996;2023-04-01T08:24:56;19.30;;;9.10;;
20322;SDS011;10319;52.206;20.996;2023-04-01T08:27:27;18.87;;;9.33;;
20322;SDS011;10319;52.206;20.996;2023-04-01T08:30:15;19.70;;;9.63;;
20322;SDS011;10319;52.206;20.996;2023-04-01T08:32:42;19.10;;;9.97;;
20322;SDS011;10319;52.206;20.996;2023-04-01T08:37:39;18.17;;;9.43;;
20322;SDS011;10319;52.206;20.996;2023-04-01T09:06:40;15.53;;;6.10;;
20322;SDS011;10319;52.206;20.996;2023-04-01T09:14:32;13.53;;;4.47;;
20322;SDS011;10319;52.206;20.996;2023-04-01T09:32:41;14.97;;;5.60;;
20322;SDS011;10319;52.206;20.996;2023-04-01T09:40:09;12.87;;;4.47;;
20322;SDS011;10319;52.206;20.996;2023-04-01T09:45:08;8.83;;;2.50;;
20322;SDS011;10319;52.206;20.996;2023-04-01T09:47:57;11.53;;;3.67;;
20322;SDS011;10319;52.206;20.996;2023-04-01T09:50:36;10.00;;;3.00;;
20322;SDS011;10319;52.206;20.996;2023-04-01T09:58:31;11.03;;;3.50;;
20322;SDS011;10319;52.206;20.996;2023-04-01T10:48:21;11.23;;;3.57;;
20322;SDS011;10319;52.206;20.996;2023-04-01T10:51:00;9.33;;;3.00;;
20322;SDS011;10319;52.206;20.996;2023-04-01T11:09:31;9.60;;;2.60;;
20322;SDS011;10319;52.206;20.996;2023-04-01T11:12:07;10.27;;;3.00;;
20322;SDS011;10319;52.206;20.996;2023-04-01T11:40:58;10.10;;;3.10;;
20322;SDS011;10319;52.206;20.996;2023-04-01T11:45:58;10.17;;;3.20;;
20322;SDS011;10319;52.206;20.996;2023-04-01T11:56:10;12.80;;;4.50;;
20322;SDS011;10319;52.206;20.996;2023-04-01T12:03:51;11.03;;;3.70;;
20322;SDS011;10319;52.206;20.996;2023-04-01T12:11:58;7.47;;;2.30;;
20322;SDS011;10319;52.206;20.996;2023-04-01T12:24:55;4.27;;;1.40;;
20322;SDS011;10319;52.206;20.996;2023-04-01T12:27:32;3.30;;;1.17;;
20322;SDS011;10319;52.206;20.996;2023-04-01T12:30:12;2.83;;;1.07;;
20322;SDS011;10319;52.206;20.996;2023-04-01T12:45:54;5.93;;;2.13;;
20322;SDS011;10319;52.206;20.996;2023-04-01T12:50:51;7.70;;;2.20;;
20322;SDS011;10319;52.206;20.996;2023-04-01T12:55:49;7.73;;;2.33;;
20322;SDS011;10319;52.206;20.996;2023-04-01T13:18:28;7.10;;;1.90;;
20322;SDS011;10319;52.206;20.996;2023-04-01T13:28:39;6.60;;;1.80;;
20322;SDS011;10319;52.206;20.996;2023-04-01T13:33:39;8.77;;;2.10;;
20322;SDS011;10319;52.206;20.996;2023-04-01T13:38:39;6.63;;;1.70;;
20322;SDS011;10319;52.206;20.996;2023-04-01T13:43:53;4.87;;;1.50;;
20322;SDS011;10319;52.206;20.996;2023-04-01T13:46:26;3.77;;;1.20;;
20322;SDS011;10319;52.206;20.996;2023-04-01T14:12:35;6.43;;;1.80;;
20322;SDS011;10319;52.206;20.996;2023-04-01T14:15:25;6.33;;;1.53;;
20322;SDS011;10319;52.206;20.996;2023-04-01T14:23:31;5.10;;;1.60;;
20322;SDS011;10319;52.206;20.996;2023-04-01T14:40:49;6.00;;;1.40;;
20322;SDS011;10319;52.206;20.996;2023-04-01T14:48:57;4.63;;;1.40;;
20322;SDS011;10319;52.206;20.996;2023-04-01T14:51:29;3.10;;;1.10;;
20322;SDS011;10319;52.206;20.996;2023-04-01T14:56:43;3.23;;;1.03;;
20322;SDS011;10319;52.206;20.996;2023-04-01T15:09:35;4.27;;;1.20;;
20322;SDS011;10319;52.206;20.996;2023-04-01T15:15:00;2.67;;;1.10;;
20322;SDS011;10319;52.206;20.996;2023-04-01T15:28:00;7.93;;;2.13;;
20322;SDS011;10319;52.206;20.996;2023-04-01T15:38:25;5.23;;;1.83;;
20322;SDS011;10319;52.206;20.996;2023-04-01T15:40:55;4.30;;;1.50;;
20322;SDS011;10319;52.206;20.996;2023-04-01T15:43:41;4.07;;;1.20;;
20322;SDS011;10319;52.206;20.996;2023-04-01T15:48:55;3.00;;;0.93;;
20322;SDS011;10319;52.206;20.996;2023-04-01T15:51:36;3.27;;;0.97;;
20322;SDS011;10319;52.206;20.996;2023-04-01T15:59:22;2.80;;;1.07;;
20322;SDS011;10319;52.206;20.996;2023-04-01T16:04:40;5.37;;;1.00;;
20322;SDS011;10319;52.206;20.996;2023-04-01T16:09:43;3.70;;;1.00;;
20322;SDS011;10319;52.206;20.996;2023-04-01T16:19:52;5.03;;;1.43;;
20322;SDS011;10319;52.206;20.996;2023-04-01T16:27:36;5.83;;;1.60;;
20322;SDS011;10319;52.206;20.996;2023-04-01T16:32:49;6.07;;;1.60;;
20322;SDS011;10319;52.206;20.996;2023-04-01T16:37:49;6.50;;;1.73;;
20322;SDS011;10319;52.206;20.996;2023-04-01T16:40:32;6.90;;;1.90;;
20322;SDS011;10319;52.206;20.996;2023-04-01T16:43:06;8.03;;;2.00;;
20322;SDS011;10319;52.206;20.996;2023-04-01T16:45:36;9.17;;;2.10;;
20322;SDS011;10319;52.206;20.996;2023-04-01T16:48:17;10.03;;;2.23;;
20322;SDS011;10319;52.206;20.996;2023-04-01T16:50:46;9.80;;;2.20;;
20322;SDS011;10319;52.206;20.996;2023-04-01T16:55:52;4.80;;;1.43;;
20322;SDS011;10319;52.206;20.996;2023-04-01T16:58:33;6.17;;;1.60;;
20322;SDS011;10319;52.206;20.996;2023-04-01T17:03:29;3.57;;;0.80;;
20322;SDS011;10319;52.206;20.996;2023-04-01T17:08:36;5.03;;;1.10;;
20322;SDS011;10319;52.206;20.996;2023-04-01T17:11:18;4.43;;;1.30;;
20322;SDS011;10319;52.206;20.996;2023-04-01T17:13:46;3.30;;;1.00;;
20322;SDS011;10319;52.206;20.996;2023-04-01T17:29:22;4.93;;;1.27;;
20322;SDS011;10319;52.206;20.996;2023-04-01T17:49:44;3.07;;;1.10;;
20322;SDS011;10319;52.206;20.996;2023-04-01T17:54:47;11.43;;;3.47;;
20322;SDS011;10319;52.206;20.996;2023-04-01T17:57:28;11.23;;;3.30;;
20322;SDS011;10319;52.206;20.996;2023-04-01T18:02:33;11.30;;;3.57;;
20322;SDS011;10319;52.206;20.996;2023-04-01T18:05:06;11.30;;;3.53;;
20322;SDS011;10319;52.206;20.996;2023-04-01T18:20:25;11.80;;;3.70;;
20322;SDS011;10319;52.206;20.996;2023-04-01T18:28:11;12.70;;;4.13;;
20322;SDS011;10319;52.206;20.996;2023-04-01T18:30:39;12.63;;;4.37;;
20322;SDS011;10319;52.206;20.996;2023-04-01T18:33:08;13.00;;;4.40;;
20322;SDS011;10319;52.206;20.996;2023-04-01T18:40:28;10.93;;;3.83;;
20322;SDS011;10319;52.206;20.996;2023-04-01T18:45:46;12.13;;;3.97;;
20322;SDS011;10319;52.206;20.996;2023-04-01T18:50:56;12.57;;;3.93;;
20322;SDS011;10319;52.206;20.996;2023-04-01T18:54:05;12.07;;;4.20;;
20322;SDS011;10319;52.206;20.996;2023-04-01T18:59:04;13.50;;;4.83;;
20322;SDS011;10319;52.206;20.996;2023-04-01T19:09:24;13.90;;;5.30;;
20322;SDS011;10319;52.206;20.996;2023-04-01T19:17:22;12.27;;;4.20;;
20322;SDS011;10319;52.206;20.996;2023-04-01T19:20:13;13.83;;;5.30;;
20322;SDS011;10319;52.206;20.996;2023-04-01T19:27:36;14.70;;;6.03;;
20322;SDS011;10319;52.206;20.996;2023-04-01T19:35:36;13.23;;;4.60;;
20322;SDS011;10319;52.206;20.996;2023-04-01T19:43:11;13.30;;;4.83;;
20322;SDS011;10319;52.206;20.996;2023-04-01T19:45:40;13.60;;;5.13;;
20322;SDS011;10319;52.206;20.996;2023-04-01T19:55:44;11.93;;;4.40;;
20322;SDS011;10319;52.206;20.996;2023-04-01T20:01:03;12.27;;;3.57;;
20322;SDS011;10319;52.206;20.996;2023-04-01T20:03:34;12.10;;;4.17;;
20322;SDS011;10319;52.206;20.996;2023-04-01T20:14:09;12.70;;;4.30;;
20322;SDS011;10319;52.206;20.996;2023-04-01T20:16:59;12.63;;;4.33;;
20322;SDS011;10319;52.206;20.996;2023-04-01T20:22:16;12.47;;;4.03;;
20322;SDS011;10319;52.206;20.996;2023-04-01T20:24:44;13.27;;;4.03;;
20322;SDS011;10319;52.206;20.996;2023-04-01T20:29:55;11.90;;;3.97;;
20322;SDS011;10319;52.206;20.996;2023-04-01T20:42:54;12.60;;;4.07;;
20322;SDS011;10319;52.206;20.996;2023-04-01T20:45:46;11.40;;;3.50;;
20322;SDS011;10319;52.206;20.996;2023-04-01T20:50:56;10.87;;;3.30;;
20322;SDS011;10319;52.206;20.996;2023-04-01T20:56:10;10.87;;;3.33;;
20322;SDS011;10319;52.206;20.996;2023-04-01T21:01:50;9.77;;;3.30;;
20322;SDS011;10319;52.206;20.996;2023-04-01T21:04:23;10.53;;;3.27;;
20322;SDS011;10319;52.206;20.996;2023-04-01T21:19:27;13.17;;;4.33;;
20322;SDS011;10319;52.206;20.996;2023-04-01T21:32:31;14.50;;;5.23;;
20322;SDS011;10319;52.206;20.996;2023-04-01T21:40:15;11.60;;;3.97;;
20322;SDS011;10319;52.206;20.996;2023-04-01T21:42:51;11.20;;;3.67;;
20322;SDS011;10319;52.206;20.996;2023-04-01T21:48:05;13.43;;;4.17;;
20322;SDS011;10319;52.206;20.996;2023-04-01T22:14:37;10.33;;;2.93;;
20322;SDS011;10319;52.206;20.996;2023-04-01T22:16:58;6.50;;;2.27;;
20322;SDS011;10319;52.206;20.996;2023-04-01T22:27:30;12.77;;;4.17;;
20322;SDS011;10319;52.206;20.996;2023-04-01T22:43:39;11.47;;;3.20;;
20322;SDS011;10319;52.206;20.996;2023-04-01T22:46:08;10.83;;;3.20;;
20322;SDS011;10319;52.206;20.996;2023-04-01T22:51:18;12.13;;;3.30;;
20322;SDS011;10319;52.206;20.996;2023-04-01T22:56:36;11.37;;;3.10;;
20322;SDS011;10319;52.206;20.996;2023-04-01T22:59:06;11.30;;;3.23;;
20322;SDS011;10319;52.206;20.996;2023-04-01T23:01:36;11.80;;;3.47;;
20322;SDS011;10319;52.206;20.996;2023-04-01T23:04:04;10.67;;;3.30;;
20322;SDS011;10319;52.206;20.996;2023-04-01T23:06:35;11.47;;;3.20;;
20322;SDS011;10319;52.206;20.996;2023-04-01T23:09:23;12.47;;;3.27;;
20322;SDS011;10319;52.206;20.996;2023-04-01T23:11:59;10.97;;;3.17;;
20322;SDS011;10319;52.206;20.996;2023-04-01T23:19:27;14.70;;;5.13;;
20322;SDS011;10319;52.206;20.996;2023-04-01T23:21:59;13.40;;;4.30;;
20322;SDS011;10319;52.206;20.996;2023-04-01T23:24:40;11.77;;;3.60;;
20322;SDS011;10319;52.206;20.996;2023-04-01T23:27:29;11.53;;;3.63;;
20322;SDS011;10319;52.206;20.996;2023-04-01T23:30:03;12.10;;;3.90;;
20322;SDS011;10319;52.206;20.996;2023-04-01T23:32:28;12.57;;;4.20;;
20322;SDS011;10319;52.206;20.996;2023-04-01T23:34:55;11.10;;;3.40;;
20322;SDS011;10319;52.206;20.996;2023-04-01T23:37:21;13.13;;;3.93;;
20322;SDS011;10319;52.206;20.996;2023-04-01T23:39:51;11.07;;;3.33;;
20322;SDS011;10319;52.206;20.996;2023-04-01T23:42:30;10.67;;;3.40;;
20322;SDS011;10319;52.206;20.996;2023-04-01T23:45:03;12.07;;;3.60;;
20322;SDS011;10319;52.206;20.996;2023-04-01T23:47:31;12.07;;;3.50;;
20322;SDS011;10319;52.206;20.996;2023-04-01T23:49:58;10.57;;;3.07;;
20322;SDS011;10319;52.206;20.996;2023-04-01T23:52:28;11.60;;;3.50;;
20322;SDS011;10319;52.206;20.996;2023-04-01T23:54:55;12.90;;;3.70;;
20322;SDS011;10319;52.206;20.996;2023-04-01T23:57:32;10.70;;;2.97;;
20322;SDS011;10319;52.206;20.996;2023-04-01T23:59:59;10.80;;;3.13;;
